Terminal Aerodrome Forecast
Issued by NWS Houston/Galveston, TX

Current Version | Previous Version | Text Only | Print | Product List | Glossary Off
Versions: 1 2 3 4 5 6 7 8 9 10 11 12 13 14 15

000
FTUS44 KHGX 210524
TAFCLL
TAF
KCLL 210524Z 2106/2206 17006KT P6SM BKN070
     FM210900 18004KT 5SM BR BKN007 OVC015
     FM211400 19011KT P6SM SCT007 BKN015
     FM211700 19013KT P6SM BKN025
     FM212300 18010KT P6SM SCT035
     FM220300 VRB05KT P6SM FEW040 BKN150=

USA.gov is the U.S. government's official web portal to all federal, state and local government web resources and services.